sensor_id;sensor_type;location;lat;lon;timestamp;temperature;humidity
24049;DHT22;12250;50.956;4.746;2023-05-07T00:01:35;15.40;99.90
24049;DHT22;12250;50.956;4.746;2023-05-07T00:04:01;15.40;99.90
24049;DHT22;12250;50.956;4.746;2023-05-07T00:06:27;15.50;99.90
24049;DHT22;12250;50.956;4.746;2023-05-07T00:08:54;15.50;99.90
24049;DHT22;12250;50.956;4.746;2023-05-07T00:11:20;15.50;99.90
24049;DHT22;12250;50.956;4.746;2023-05-07T00:13:47;15.50;99.90
24049;DHT22;12250;50.956;4.746;2023-05-07T00:16:13;15.50;99.90
24049;DHT22;12250;50.956;4.746;2023-05-07T00:18:38;15.60;99.90
24049;DHT22;12250;50.956;4.746;2023-05-07T00:21:04;15.60;99.90
24049;DHT22;12250;50.956;4.746;2023-05-07T00:23:30;15.60;99.90
24049;DHT22;12250;50.956;4.746;2023-05-07T00:25:56;15.60;99.90
24049;DHT22;12250;50.956;4.746;2023-05-07T00:28:21;15.60;99.90
24049;DHT22;12250;50.956;4.746;2023-05-07T00:30:47;15.60;99.90
24049;DHT22;12250;50.956;4.746;2023-05-07T00:33:13;15.60;99.90
24049;DHT22;12250;50.956;4.746;2023-05-07T00:35:38;15.60;99.90
24049;DHT22;12250;50.956;4.746;2023-05-07T00:38:04;15.60;99.90
24049;DHT22;12250;50.956;4.746;2023-05-07T00:40:30;15.60;99.90
24049;DHT22;12250;50.956;4.746;2023-05-07T00:42:56;15.60;99.90
24049;DHT22;12250;50.956;4.746;2023-05-07T00:45:26;15.60;99.90
24049;DHT22;12250;50.956;4.746;2023-05-07T00:48:02;15.60;99.90
24049;DHT22;12250;50.956;4.746;2023-05-07T00:50:28;15.60;99.90
24049;DHT22;12250;50.956;4.746;2023-05-07T00:52:55;15.50;99.90
24049;DHT22;12250;50.956;4.746;2023-05-07T00:55:22;15.50;99.90
24049;DHT22;12250;50.956;4.746;2023-05-07T00:57:48;15.50;99.90
24049;DHT22;12250;50.956;4.746;2023-05-07T01:00:14;15.50;99.90
24049;DHT22;12250;50.956;4.746;2023-05-07T01:02:40;15.50;99.90
24049;DHT22;12250;50.956;4.746;2023-05-07T01:05:09;15.50;99.90
24049;DHT22;12250;50.956;4.746;2023-05-07T01:07:35;15.50;99.90
24049;DHT22;12250;50.956;4.746;2023-05-07T01:10:02;15.50;99.90
24049;DHT22;12250;50.956;4.746;2023-05-07T01:12:29;15.40;99.90
24049;DHT22;12250;50.956;4.746;2023-05-07T01:14:55;15.40;99.90
24049;DHT22;12250;50.956;4.746;2023-05-07T01:17:21;15.40;99.90
24049;DHT22;12250;50.956;4.746;2023-05-07T01:19:46;15.40;99.90
24049;DHT22;12250;50.956;4.746;2023-05-07T01:22:15;15.40;99.90
24049;DHT22;12250;50.956;4.746;2023-05-07T01:24:42;15.40;99.90
24049;DHT22;12250;50.956;4.746;2023-05-07T01:27:08;15.30;99.90
24049;DHT22;12250;50.956;4.746;2023-05-07T01:29:34;15.30;99.90
24049;DHT22;12250;50.956;4.746;2023-05-07T01:32:00;15.30;99.90
24049;DHT22;12250;50.956;4.746;2023-05-07T01:34:32;15.20;99.90
24049;DHT22;12250;50.956;4.746;2023-05-07T01:37:00;15.20;99.90
24049;DHT22;12250;50.956;4.746;2023-05-07T01:39:27;15.30;99.90
24049;DHT22;12250;50.956;4.746;2023-05-07T01:41:57;15.30;99.90
24049;DHT22;12250;50.956;4.746;2023-05-07T01:44:25;15.20;99.90
24049;DHT22;12250;50.956;4.746;2023-05-07T01:46:51;15.30;99.90
24049;DHT22;12250;50.956;4.746;2023-05-07T01:49:17;15.30;99.90
24049;DHT22;12250;50.956;4.746;2023-05-07T01:51:43;15.20;99.90
24049;DHT22;12250;50.956;4.746;2023-05-07T01:54:10;15.30;99.90
24049;DHT22;12250;50.956;4.746;2023-05-07T01:56:35;15.20;99.90
24049;DHT22;12250;50.956;4.746;2023-05-07T01:59:01;15.30;99.90
24049;DHT22;12250;50.956;4.746;2023-05-07T02:01:27;15.30;99.90
24049;DHT22;12250;50.956;4.746;2023-05-07T02:03:53;15.30;99.90
24049;DHT22;12250;50.956;4.746;2023-05-07T02:06:19;15.30;99.90
24049;DHT22;12250;50.956;4.746;2023-05-07T02:08:45;15.20;99.90
24049;DHT22;12250;50.956;4.746;2023-05-07T02:11:11;15.30;99.90
24049;DHT22;12250;50.956;4.746;2023-05-07T02:13:37;15.30;99.90
24049;DHT22;12250;50.956;4.746;2023-05-07T02:16:03;15.30;99.90
24049;DHT22;12250;50.956;4.746;2023-05-07T02:18:29;15.30;99.90
24049;DHT22;12250;50.956;4.746;2023-05-07T02:20:55;15.30;99.90
24049;DHT22;12250;50.956;4.746;2023-05-07T02:23:20;15.30;99.90
24049;DHT22;12250;50.956;4.746;2023-05-07T02:25:46;15.30;99.90
24049;DHT22;12250;50.956;4.746;2023-05-07T02:28:12;15.30;99.90
24049;DHT22;12250;50.956;4.746;2023-05-07T02:30:38;15.30;99.90
24049;DHT22;12250;50.956;4.746;2023-05-07T02:33:04;15.30;99.90
24049;DHT22;12250;50.956;4.746;2023-05-07T02:35:30;15.30;99.90
24049;DHT22;12250;50.956;4.746;2023-05-07T02:37:55;15.30;99.90
24049;DHT22;12250;50.956;4.746;2023-05-07T02:40:21;15.30;99.90
24049;DHT22;12250;50.956;4.746;2023-05-07T02:42:47;15.30;99.90
24049;DHT22;12250;50.956;4.746;2023-05-07T02:45:12;15.30;99.90
24049;DHT22;12250;50.956;4.746;2023-05-07T02:47:39;15.30;99.90
24049;DHT22;12250;50.956;4.746;2023-05-07T02:50:06;15.30;99.90
24049;DHT22;12250;50.956;4.746;2023-05-07T02:52:31;15.20;99.90
24049;DHT22;12250;50.956;4.746;2023-05-07T02:54:57;15.20;99.90
24049;DHT22;12250;50.956;4.746;2023-05-07T02:57:23;15.20;99.90
24049;DHT22;12250;50.956;4.746;2023-05-07T02:59:48;15.30;99.90
24049;DHT22;12250;50.956;4.746;2023-05-07T03:02:14;15.20;99.90
24049;DHT22;12250;50.956;4.746;2023-05-07T03:04:40;15.20;99.90
24049;DHT22;12250;50.956;4.746;2023-05-07T03:07:06;15.20;99.90
24049;DHT22;12250;50.956;4.746;2023-05-07T03:09:32;15.20;99.90
24049;DHT22;12250;50.956;4.746;2023-05-07T03:11:57;15.10;99.90
24049;DHT22;12250;50.956;4.746;2023-05-07T03:14:23;15.10;99.90
24049;DHT22;12250;50.956;4.746;2023-05-07T03:16:49;15.10;99.90
24049;DHT22;12250;50.956;4.746;2023-05-07T03:19:15;15.20;99.90
24049;DHT22;12250;50.956;4.746;2023-05-07T03:21:41;15.20;99.90
24049;DHT22;12250;50.956;4.746;2023-05-07T03:24:07;15.20;99.90
24049;DHT22;12250;50.956;4.746;2023-05-07T03:26:32;15.30;99.90
24049;DHT22;12250;50.956;4.746;2023-05-07T03:28:58;15.30;99.90
24049;DHT22;12250;50.956;4.746;2023-05-07T03:31:24;15.40;99.90
24049;DHT22;12250;50.956;4.746;2023-05-07T03:33:54;15.30;99.90
24049;DHT22;12250;50.956;4.746;2023-05-07T03:36:20;15.40;99.90
24049;DHT22;12250;50.956;4.746;2023-05-07T03:38:47;15.40;99.90
24049;DHT22;12250;50.956;4.746;2023-05-07T03:41:13;15.40;99.90
24049;DHT22;12250;50.956;4.746;2023-05-07T03:43:39;15.40;99.90
24049;DHT22;12250;50.956;4.746;2023-05-07T03:46:05;15.40;99.90
24049;DHT22;12250;50.956;4.746;2023-05-07T03:48:31;15.40;99.90
24049;DHT22;12250;50.956;4.746;2023-05-07T03:50:57;15.40;99.90
24049;DHT22;12250;50.956;4.746;2023-05-07T03:53:24;15.40;99.90
24049;DHT22;12250;50.956;4.746;2023-05-07T03:55:49;15.40;99.90
24049;DHT22;12250;50.956;4.746;2023-05-07T03:58:15;15.30;99.90
24049;DHT22;12250;50.956;4.746;2023-05-07T04:00:41;15.30;99.90
24049;DHT22;12250;50.956;4.746;2023-05-07T04:03:07;15.30;99.90
24049;DHT22;12250;50.956;4.746;2023-05-07T04:05:33;15.30;99.90
24049;DHT22;12250;50.956;4.746;2023-05-07T04:07:59;15.20;99.90
24049;DHT22;12250;50.956;4.746;2023-05-07T04:10:24;15.30;99.90
24049;DHT22;12250;50.956;4.746;2023-05-07T04:12:50;15.30;99.90
24049;DHT22;12250;50.956;4.746;2023-05-07T04:15:16;15.30;99.90
24049;DHT22;12250;50.956;4.746;2023-05-07T04:17:42;15.30;99.90
24049;DHT22;12250;50.956;4.746;2023-05-07T04:20:14;15.30;99.90
24049;DHT22;12250;50.956;4.746;2023-05-07T04:22:40;15.30;99.90
24049;DHT22;12250;50.956;4.746;2023-05-07T04:25:06;15.20;99.90
24049;DHT22;12250;50.956;4.746;2023-05-07T04:27:34;15.20;99.90
24049;DHT22;12250;50.956;4.746;2023-05-07T04:30:00;15.20;99.90
24049;DHT22;12250;50.956;4.746;2023-05-07T04:32:26;15.20;99.90
24049;DHT22;12250;50.956;4.746;2023-05-07T04:34:55;15.30;99.90
24049;DHT22;12250;50.956;4.746;2023-05-07T04:37:21;15.30;99.90
24049;DHT22;12250;50.956;4.746;2023-05-07T04:39:47;15.20;99.90
24049;DHT22;12250;50.956;4.746;2023-05-07T04:42:16;15.20;99.90
24049;DHT22;12250;50.956;4.746;2023-05-07T04:44:44;15.20;99.90
24049;DHT22;12250;50.956;4.746;2023-05-07T04:47:10;15.20;99.90
24049;DHT22;12250;50.956;4.746;2023-05-07T04:49:37;15.20;99.90
24049;DHT22;12250;50.956;4.746;2023-05-07T04:52:03;15.20;99.90
24049;DHT22;12250;50.956;4.746;2023-05-07T04:54:29;15.20;99.90
24049;DHT22;12250;50.956;4.746;2023-05-07T04:56:55;15.30;99.90
24049;DHT22;12250;50.956;4.746;2023-05-07T04:59:21;15.30;99.90
24049;DHT22;12250;50.956;4.746;2023-05-07T05:01:47;15.40;99.90
24049;DHT22;12250;50.956;4.746;2023-05-07T05:04:12;15.50;99.90
24049;DHT22;12250;50.956;4.746;2023-05-07T05:06:39;15.60;99.90
24049;DHT22;12250;50.956;4.746;2023-05-07T05:09:04;15.70;99.90
24049;DHT22;12250;50.956;4.746;2023-05-07T05:11:31;15.80;99.90
24049;DHT22;12250;50.956;4.746;2023-05-07T05:13:57;15.90;99.90
24049;DHT22;12250;50.956;4.746;2023-05-07T05:16:23;16.00;99.90
24049;DHT22;12250;50.956;4.746;2023-05-07T05:18:49;16.10;99.90
24049;DHT22;12250;50.956;4.746;2023-05-07T05:21:16;16.20;99.90
24049;DHT22;12250;50.956;4.746;2023-05-07T05:23:42;16.30;99.90
24049;DHT22;12250;50.956;4.746;2023-05-07T05:26:08;16.60;99.90
24049;DHT22;12250;50.956;4.746;2023-05-07T05:28:33;16.70;99.90
24049;DHT22;12250;50.956;4.746;2023-05-07T05:30:59;16.90;99.90
24049;DHT22;12250;50.956;4.746;2023-05-07T05:33:28;17.20;99.90
24049;DHT22;12250;50.956;4.746;2023-05-07T05:35:54;17.30;99.90
24049;DHT22;12250;50.956;4.746;2023-05-07T05:38:20;17.30;99.90
24049;DHT22;12250;50.956;4.746;2023-05-07T05:40:46;17.40;99.90
24049;DHT22;12250;50.956;4.746;2023-05-07T05:43:13;17.40;99.90
24049;DHT22;12250;50.956;4.746;2023-05-07T05:45:39;17.50;99.90
24049;DHT22;12250;50.956;4.746;2023-05-07T05:48:04;17.50;99.90
24049;DHT22;12250;50.956;4.746;2023-05-07T05:50:30;17.50;99.90
24049;DHT22;12250;50.956;4.746;2023-05-07T05:52:56;17.60;99.90
24049;DHT22;12250;50.956;4.746;2023-05-07T05:55:22;17.60;99.90
24049;DHT22;12250;50.956;4.746;2023-05-07T05:57:47;17.60;99.90
24049;DHT22;12250;50.956;4.746;2023-05-07T06:00:13;17.70;99.90
24049;DHT22;12250;50.956;4.746;2023-05-07T06:02:39;17.70;99.90
24049;DHT22;12250;50.956;4.746;2023-05-07T06:05:05;17.70;99.90
24049;DHT22;12250;50.956;4.746;2023-05-07T06:07:31;17.80;99.90
24049;DHT22;12250;50.956;4.746;2023-05-07T06:09:56;17.90;99.90
24049;DHT22;12250;50.956;4.746;2023-05-07T06:12:22;17.90;99.90
24049;DHT22;12250;50.956;4.746;2023-05-07T06:14:48;18.00;99.90
24049;DHT22;12250;50.956;4.746;2023-05-07T06:17:13;18.10;99.90
24049;DHT22;12250;50.956;4.746;2023-05-07T06:19:39;18.10;99.90
24049;DHT22;12250;50.956;4.746;2023-05-07T06:22:05;18.10;99.90
24049;DHT22;12250;50.956;4.746;2023-05-07T06:24:31;18.20;99.90
24049;DHT22;12250;50.956;4.746;2023-05-07T06:26:56;18.30;99.90
24049;DHT22;12250;50.956;4.746;2023-05-07T06:29:24;18.40;99.90
24049;DHT22;12250;50.956;4.746;2023-05-07T06:31:52;18.60;99.90
24049;DHT22;12250;50.956;4.746;2023-05-07T06:34:18;18.80;99.90
24049;DHT22;12250;50.956;4.746;2023-05-07T06:36:44;19.00;99.90
24049;DHT22;12250;50.956;4.746;2023-05-07T06:39:09;19.20;99.90
24049;DHT22;12250;50.956;4.746;2023-05-07T06:41:35;19.60;99.90
24049;DHT22;12250;50.956;4.746;2023-05-07T06:44:05;20.20;99.90
24049;DHT22;12250;50.956;4.746;2023-05-07T06:46:30;20.60;99.90
24049;DHT22;12250;50.956;4.746;2023-05-07T06:48:56;21.00;99.90
24049;DHT22;12250;50.956;4.746;2023-05-07T06:51:22;21.10;99.90
24049;DHT22;12250;50.956;4.746;2023-05-07T06:53:48;21.20;99.90
24049;DHT22;12250;50.956;4.746;2023-05-07T06:56:14;21.00;99.90
24049;DHT22;12250;50.956;4.746;2023-05-07T06:58:39;20.70;99.90
24049;DHT22;12250;50.956;4.746;2023-05-07T07:01:05;20.40;99.90
24049;DHT22;12250;50.956;4.746;2023-05-07T07:03:31;20.20;99.90
24049;DHT22;12250;50.956;4.746;2023-05-07T07:05:56;20.00;99.90
24049;DHT22;12250;50.956;4.746;2023-05-07T07:08:22;19.80;99.90
24049;DHT22;12250;50.956;4.746;2023-05-07T07:10:48;19.70;99.90
24049;DHT22;12250;50.956;4.746;2023-05-07T07:13:14;19.60;99.90
24049;DHT22;12250;50.956;4.746;2023-05-07T07:15:40;19.50;99.90
24049;DHT22;12250;50.956;4.746;2023-05-07T07:18:06;19.40;99.90
24049;DHT22;12250;50.956;4.746;2023-05-07T07:56:37;19.50;99.90
24049;DHT22;12250;50.956;4.746;2023-05-07T07:59:03;19.70;99.90
24049;DHT22;12250;50.956;4.746;2023-05-07T08:01:31;19.70;99.90
24049;DHT22;12250;50.956;4.746;2023-05-07T08:03:57;19.60;99.90
24049;DHT22;12250;50.956;4.746;2023-05-07T08:06:25;19.50;99.90
24049;DHT22;12250;50.956;4.746;2023-05-07T08:08:52;19.40;99.90
24049;DHT22;12250;50.956;4.746;2023-05-07T08:11:17;19.40;99.90
24049;DHT22;12250;50.956;4.746;2023-05-07T08:13:43;19.50;99.90
24049;DHT22;12250;50.956;4.746;2023-05-07T08:16:10;19.40;99.90
24049;DHT22;12250;50.956;4.746;2023-05-07T08:18:36;19.40;99.90
24049;DHT22;12250;50.956;4.746;2023-05-07T08:21:01;19.30;99.90
24049;DHT22;12250;50.956;4.746;2023-05-07T08:23:27;19.30;99.90
24049;DHT22;12250;50.956;4.746;2023-05-07T08:25:53;19.20;99.90
24049;DHT22;12250;50.956;4.746;2023-05-07T08:28:19;19.10;99.90
24049;DHT22;12250;50.956;4.746;2023-05-07T08:30:45;19.10;99.90
24049;DHT22;12250;50.956;4.746;2023-05-07T08:33:12;19.00;99.90
24049;DHT22;12250;50.956;4.746;2023-05-07T08:35:37;19.00;99.90
24049;DHT22;12250;50.956;4.746;2023-05-07T08:38:03;18.90;99.90
24049;DHT22;12250;50.956;4.746;2023-05-07T08:40:29;18.90;99.90
24049;DHT22;12250;50.956;4.746;2023-05-07T08:43:00;18.90;99.90
24049;DHT22;12250;50.956;4.746;2023-05-07T08:45:28;19.00;99.90
24049;DHT22;12250;50.956;4.746;2023-05-07T08:47:58;19.10;99.90
24049;DHT22;12250;50.956;4.746;2023-05-07T08:50:25;19.20;99.90
24049;DHT22;12250;50.956;4.746;2023-05-07T08:52:52;19.30;99.90
24049;DHT22;12250;50.956;4.746;2023-05-07T08:55:18;19.40;99.90
24049;DHT22;12250;50.956;4.746;2023-05-07T08:57:44;19.60;99.90
24049;DHT22;12250;50.956;4.746;2023-05-07T09:00:10;19.60;99.90
24049;DHT22;12250;50.956;4.746;2023-05-07T09:02:37;19.60;99.90
24049;DHT22;12250;50.956;4.746;2023-05-07T09:05:03;19.70;99.90
24049;DHT22;12250;50.956;4.746;2023-05-07T09:07:30;19.60;99.90
24049;DHT22;12250;50.956;4.746;2023-05-07T09:09:56;19.70;99.90
24049;DHT22;12250;50.956;4.746;2023-05-07T09:12:22;19.70;99.90
24049;DHT22;12250;50.956;4.746;2023-05-07T09:14:49;19.70;99.90
24049;DHT22;12250;50.956;4.746;2023-05-07T09:17:17;19.70;99.90
24049;DHT22;12250;50.956;4.746;2023-05-07T09:19:44;19.70;99.90
24049;DHT22;12250;50.956;4.746;2023-05-07T09:22:11;19.60;99.90
24049;DHT22;12250;50.956;4.746;2023-05-07T09:24:37;19.70;99.90
24049;DHT22;12250;50.956;4.746;2023-05-07T09:27:07;19.60;99.90
24049;DHT22;12250;50.956;4.746;2023-05-07T09:29:34;19.50;99.90
24049;DHT22;12250;50.956;4.746;2023-05-07T09:32:06;19.40;99.90
24049;DHT22;12250;50.956;4.746;2023-05-07T09:34:32;19.30;99.90
24049;DHT22;12250;50.956;4.746;2023-05-07T09:37:05;19.40;99.90
24049;DHT22;12250;50.956;4.746;2023-05-07T09:39:40;19.30;99.90
24049;DHT22;12250;50.956;4.746;2023-05-07T09:42:06;19.30;99.90
24049;DHT22;12250;50.956;4.746;2023-05-07T09:44:33;19.20;99.90
24049;DHT22;12250;50.956;4.746;2023-05-07T09:47:00;19.20;99.90
24049;DHT22;12250;50.956;4.746;2023-05-07T09:49:29;19.20;99.90
24049;DHT22;12250;50.956;4.746;2023-05-07T09:51:55;19.30;99.90
24049;DHT22;12250;50.956;4.746;2023-05-07T09:54:22;19.30;99.90
24049;DHT22;12250;50.956;4.746;2023-05-07T09:56:52;19.30;99.90
24049;DHT22;12250;50.956;4.746;2023-05-07T09:59:18;19.20;99.90
24049;DHT22;12250;50.956;4.746;2023-05-07T10:01:46;19.20;99.90
24049;DHT22;12250;50.956;4.746;2023-05-07T10:04:12;19.00;99.90
24049;DHT22;12250;50.956;4.746;2023-05-07T10:06:40;19.00;99.90
24049;DHT22;12250;50.956;4.746;2023-05-07T10:09:06;19.00;99.90
24049;DHT22;12250;50.956;4.746;2023-05-07T10:11:33;19.00;99.90
24049;DHT22;12250;50.956;4.746;2023-05-07T10:14:00;18.90;99.90
24049;DHT22;12250;50.956;4.746;2023-05-07T10:16:30;18.80;99.90
24049;DHT22;12250;50.956;4.746;2023-05-07T10:18:58;18.80;99.90
24049;DHT22;12250;50.956;4.746;2023-05-07T10:21:26;18.90;99.90
24049;DHT22;12250;50.956;4.746;2023-05-07T10:24:17;18.80;99.90
24049;DHT22;12250;50.956;4.746;2023-05-07T10:26:48;18.80;99.90
24049;DHT22;12250;50.956;4.746;2023-05-07T10:29:15;18.90;99.90
24049;DHT22;12250;50.956;4.746;2023-05-07T10:34:23;18.80;99.90
24049;DHT22;12250;50.956;4.746;2023-05-07T10:36:51;18.80;99.90
24049;DHT22;12250;50.956;4.746;2023-05-07T10:39:19;18.80;99.90
24049;DHT22;12250;50.956;4.746;2023-05-07T10:41:46;18.80;99.90
24049;DHT22;12250;50.956;4.746;2023-05-07T10:44:11;18.70;99.90
24049;DHT22;12250;50.956;4.746;2023-05-07T10:47:12;18.80;99.90
24049;DHT22;12250;50.956;4.746;2023-05-07T10:52:15;18.80;99.90
24049;DHT22;12250;50.956;4.746;2023-05-07T10:54:42;18.80;99.90
24049;DHT22;12250;50.956;4.746;2023-05-07T10:57:38;18.80;99.90
24049;DHT22;12250;50.956;4.746;2023-05-07T11:05:25;18.80;99.90
24049;DHT22;12250;50.956;4.746;2023-05-07T11:08:00;19.00;99.90
24049;DHT22;12250;50.956;4.746;2023-05-07T11:10:54;19.00;99.90
24049;DHT22;12250;50.956;4.746;2023-05-07T11:13:53;19.00;99.90
24049;DHT22;12250;50.956;4.746;2023-05-07T11:16:23;19.10;99.90
24049;DHT22;12250;50.956;4.746;2023-05-07T11:18:54;19.40;99.90
24049;DHT22;12250;50.956;4.746;2023-05-07T11:21:39;19.60;99.90
24049;DHT22;12250;50.956;4.746;2023-05-07T11:24:09;19.60;99.90
24049;DHT22;12250;50.956;4.746;2023-05-07T11:26:46;19.50;99.90
24049;DHT22;12250;50.956;4.746;2023-05-07T11:29:14;19.40;99.90
24049;DHT22;12250;50.956;4.746;2023-05-07T11:31:41;19.40;99.90
24049;DHT22;12250;50.956;4.746;2023-05-07T11:34:07;19.30;99.90
24049;DHT22;12250;50.956;4.746;2023-05-07T11:36:33;19.20;99.90
24049;DHT22;12250;50.956;4.746;2023-05-07T11:38:59;19.30;99.90
24049;DHT22;12250;50.956;4.746;2023-05-07T11:41:37;19.30;99.90
24049;DHT22;12250;50.956;4.746;2023-05-07T11:44:03;19.30;99.90
24049;DHT22;12250;50.956;4.746;2023-05-07T11:46:29;19.20;99.90
24049;DHT22;12250;50.956;4.746;2023-05-07T11:48:56;19.20;99.90
24049;DHT22;12250;50.956;4.746;2023-05-07T11:51:23;19.20;99.90
24049;DHT22;12250;50.956;4.746;2023-05-07T11:53:50;19.20;99.90
24049;DHT22;12250;50.956;4.746;2023-05-07T11:56:17;19.30;99.90
24049;DHT22;12250;50.956;4.746;2023-05-07T11:58:44;19.40;99.90
24049;DHT22;12250;50.956;4.746;2023-05-07T12:01:12;19.50;99.90
24049;DHT22;12250;50.956;4.746;2023-05-07T12:03:40;19.60;99.90
24049;DHT22;12250;50.956;4.746;2023-05-07T12:06:09;19.70;99.90
24049;DHT22;12250;50.956;4.746;2023-05-07T12:08:39;19.80;99.90
24049;DHT22;12250;50.956;4.746;2023-05-07T12:11:08;19.80;99.90
24049;DHT22;12250;50.956;4.746;2023-05-07T12:13:35;19.80;99.90
24049;DHT22;12250;50.956;4.746;2023-05-07T12:16:01;19.80;99.90
24049;DHT22;12250;50.956;4.746;2023-05-07T12:18:29;19.90;99.90
24049;DHT22;12250;50.956;4.746;2023-05-07T12:20:55;19.90;99.90
24049;DHT22;12250;50.956;4.746;2023-05-07T12:23:22;19.80;99.90
24049;DHT22;12250;50.956;4.746;2023-05-07T12:25:48;19.90;99.90
24049;DHT22;12250;50.956;4.746;2023-05-07T12:28:18;19.90;99.90
24049;DHT22;12250;50.956;4.746;2023-05-07T12:30:47;19.80;99.90
24049;DHT22;12250;50.956;4.746;2023-05-07T12:33:17;19.90;99.90
24049;DHT22;12250;50.956;4.746;2023-05-07T12:35:43;20.00;99.90
24049;DHT22;12250;50.956;4.746;2023-05-07T12:38:14;20.00;99.90
24049;DHT22;12250;50.956;4.746;2023-05-07T12:40:47;20.10;99.90
24049;DHT22;12250;50.956;4.746;2023-05-07T12:43:26;20.10;99.90
24049;DHT22;12250;50.956;4.746;2023-05-07T12:45:55;20.10;99.90
24049;DHT22;12250;50.956;4.746;2023-05-07T12:48:21;20.20;99.90
24049;DHT22;12250;50.956;4.746;2023-05-07T12:50:51;20.40;99.90
24049;DHT22;12250;50.956;4.746;2023-05-07T12:53:21;20.60;99.90
24049;DHT22;12250;50.956;4.746;2023-05-07T12:55:52;20.70;99.90
24049;DHT22;12250;50.956;4.746;2023-05-07T12:58:19;20.80;99.90
24049;DHT22;12250;50.956;4.746;2023-05-07T13:00:49;20.90;99.90
24049;DHT22;12250;50.956;4.746;2023-05-07T13:03:34;20.90;99.90
24049;DHT22;12250;50.956;4.746;2023-05-07T13:06:06;20.80;99.90
24049;DHT22;12250;50.956;4.746;2023-05-07T13:08:34;20.80;99.90
24049;DHT22;12250;50.956;4.746;2023-05-07T13:11:01;20.70;99.90
24049;DHT22;12250;50.956;4.746;2023-05-07T13:13:32;20.60;99.90
24049;DHT22;12250;50.956;4.746;2023-05-07T13:15:59;20.60;99.90
24049;DHT22;12250;50.956;4.746;2023-05-07T13:18:26;20.40;99.90
24049;DHT22;12250;50.956;4.746;2023-05-07T13:20:53;20.20;99.90
24049;DHT22;12250;50.956;4.746;2023-05-07T13:23:18;20.30;99.90
24049;DHT22;12250;50.956;4.746;2023-05-07T13:25:44;20.30;99.90
24049;DHT22;12250;50.956;4.746;2023-05-07T13:28:11;20.20;99.90
24049;DHT22;12250;50.956;4.746;2023-05-07T13:30:37;20.00;99.90
24049;DHT22;12250;50.956;4.746;2023-05-07T13:33:03;20.10;99.90
24049;DHT22;12250;50.956;4.746;2023-05-07T13:35:29;20.20;99.90
24049;DHT22;12250;50.956;4.746;2023-05-07T13:37:55;20.30;99.90
24049;DHT22;12250;50.956;4.746;2023-05-07T13:40:22;20.50;99.90
24049;DHT22;12250;50.956;4.746;2023-05-07T13:42:48;20.70;99.90
24049;DHT22;12250;50.956;4.746;2023-05-07T13:45:14;20.90;99.90
24049;DHT22;12250;50.956;4.746;2023-05-07T13:47:43;21.00;99.90
24049;DHT22;12250;50.956;4.746;2023-05-07T13:50:10;21.20;99.90
24049;DHT22;12250;50.956;4.746;2023-05-07T13:52:37;21.40;99.90
24049;DHT22;12250;50.956;4.746;2023-05-07T13:55:03;21.60;99.90
24049;DHT22;12250;50.956;4.746;2023-05-07T13:57:29;21.90;99.90
24049;DHT22;12250;50.956;4.746;2023-05-07T13:59:55;22.10;99.90
24049;DHT22;12250;50.956;4.746;2023-05-07T14:02:20;22.30;99.90
24049;DHT22;12250;50.956;4.746;2023-05-07T14:04:46;22.60;99.90
24049;DHT22;12250;50.956;4.746;2023-05-07T14:07:12;22.60;99.90
24049;DHT22;12250;50.956;4.746;2023-05-07T14:09:38;22.70;99.90
24049;DHT22;12250;50.956;4.746;2023-05-07T14:12:03;22.80;99.90
24049;DHT22;12250;50.956;4.746;2023-05-07T14:14:30;23.00;99.90
24049;DHT22;12250;50.956;4.746;2023-05-07T14:16:55;23.00;99.90
24049;DHT22;12250;50.956;4.746;2023-05-07T14:19:22;23.00;99.90
24049;DHT22;12250;50.956;4.746;2023-05-07T14:21:48;22.90;99.90
24049;DHT22;12250;50.956;4.746;2023-05-07T14:24:14;22.70;99.90
24049;DHT22;12250;50.956;4.746;2023-05-07T14:26:40;22.50;99.90
24049;DHT22;12250;50.956;4.746;2023-05-07T14:29:06;22.20;99.90
24049;DHT22;12250;50.956;4.746;2023-05-07T14:31:31;22.20;99.90
24049;DHT22;12250;50.956;4.746;2023-05-07T14:33:58;22.10;99.90
24049;DHT22;12250;50.956;4.746;2023-05-07T14:36:24;22.00;99.90
24049;DHT22;12250;50.956;4.746;2023-05-07T14:38:52;21.80;99.90
24049;DHT22;12250;50.956;4.746;2023-05-07T14:41:22;21.70;99.90
24049;DHT22;12250;50.956;4.746;2023-05-07T14:43:48;21.80;99.90
24049;DHT22;12250;50.956;4.746;2023-05-07T14:46:18;21.90;99.90
24049;DHT22;12250;50.956;4.746;2023-05-07T14:48:44;22.00;99.90
24049;DHT22;12250;50.956;4.746;2023-05-07T14:51:11;22.00;99.90
24049;DHT22;12250;50.956;4.746;2023-05-07T14:53:37;22.00;99.90
24049;DHT22;12250;50.956;4.746;2023-05-07T14:56:04;22.00;99.90
24049;DHT22;12250;50.956;4.746;2023-05-07T14:58:30;22.00;99.90
24049;DHT22;12250;50.956;4.746;2023-05-07T15:00:56;22.00;99.90
24049;DHT22;12250;50.956;4.746;2023-05-07T15:03:22;21.90;99.90
24049;DHT22;12250;50.956;4.746;2023-05-07T15:05:48;22.00;99.90
24049;DHT22;12250;50.956;4.746;2023-05-07T15:08:17;22.20;99.90
24049;DHT22;12250;50.956;4.746;2023-05-07T15:10:43;22.30;99.90
24049;DHT22;12250;50.956;4.746;2023-05-07T15:13:10;22.40;99.90
24049;DHT22;12250;50.956;4.746;2023-05-07T15:15:36;22.30;99.90
24049;DHT22;12250;50.956;4.746;2023-05-07T15:18:02;22.30;99.90
24049;DHT22;12250;50.956;4.746;2023-05-07T15:20:28;22.40;99.90
24049;DHT22;12250;50.956;4.746;2023-05-07T15:22:54;22.50;99.90
24049;DHT22;12250;50.956;4.746;2023-05-07T15:25:20;22.60;99.90
24049;DHT22;12250;50.956;4.746;2023-05-07T15:27:46;22.60;99.90
24049;DHT22;12250;50.956;4.746;2023-05-07T15:30:12;22.70;99.90
24049;DHT22;12250;50.956;4.746;2023-05-07T15:32:40;22.70;99.90
24049;DHT22;12250;50.956;4.746;2023-05-07T15:35:06;22.70;99.90
24049;DHT22;12250;50.956;4.746;2023-05-07T15:37:33;22.70;99.90
24049;DHT22;12250;50.956;4.746;2023-05-07T15:39:59;22.70;99.90
24049;DHT22;12250;50.956;4.746;2023-05-07T15:42:24;22.50;99.90
24049;DHT22;12250;50.956;4.746;2023-05-07T15:44:50;22.40;99.90
24049;DHT22;12250;50.956;4.746;2023-05-07T15:47:16;22.20;99.90
24049;DHT22;12250;50.956;4.746;2023-05-07T15:49:42;22.00;99.90
24049;DHT22;12250;50.956;4.746;2023-05-07T15:52:08;21.90;99.90
24049;DHT22;12250;50.956;4.746;2023-05-07T15:54:36;22.10;99.90
24049;DHT22;12250;50.956;4.746;2023-05-07T15:57:03;22.10;99.90
24049;DHT22;12250;50.956;4.746;2023-05-07T15:59:29;22.10;99.90
24049;DHT22;12250;50.956;4.746;2023-05-07T16:01:55;22.00;99.90
24049;DHT22;12250;50.956;4.746;2023-05-07T16:04:21;22.00;99.90
24049;DHT22;12250;50.956;4.746;2023-05-07T16:06:46;22.00;99.90
24049;DHT22;12250;50.956;4.746;2023-05-07T16:09:13;21.90;99.90
24049;DHT22;12250;50.956;4.746;2023-05-07T16:11:39;22.00;99.90
24049;DHT22;12250;50.956;4.746;2023-05-07T16:14:05;21.90;99.90
24049;DHT22;12250;50.956;4.746;2023-05-07T16:16:34;21.90;99.90